DW4641 Weather Reports


Display with metric or nautical units.
time (UTC)temp
F
wind
direction
speed
MPH
gust
MPH
rain 1hr
in
rain 24hr
in
rain mn
in
humidity
%
barometer
mb
20180225014345 43 300 1.0 3.0 0.05 0.14 0.13 93 1022.4
20180225013841 43 300 1.0 3.0 0.05 0.14 0.13 93 1022.4
20180225013342 43 300 1.0 3.0 0.06 0.14 0.13 93 1022.3
20180225012840 43 300 0.0 2.0 0.05 0.13 0.12 93 1022.1
20180225012337 43 300 0.0 2.0 0.04 0.12 0.11 92 1021.7
20180225011837 43 300 1.0 2.0 0.04 0.12 0.11 92 1021.4
20180225011352 43 300 0.0 1.0 0.03 0.11 0.10 92 1021.3
20180225010846 43 300 0.0 2.0 0.02 0.10 0.09 92 1021.4
20180225010408 43 300 0.0 2.0 0.02 0.10 0.09 92 1021.6
20180225005835 43 300 0.0 3.0 0.02 0.10 0.09 92 1021.5
20180225005345 43 300 0.0 3.0 0.02 0.10 0.09 91 1021.5
20180225004845 43 300 1.0 3.0 0.01 0.09 0.08 91 1021.1
20180225004347 43 300 1.0 3.0 0.01 0.09 0.08 92 1021.1
20180225003843 43 300 1.0 2.0 0.02 0.09 0.08 92 1020.8
20180225003343 43 300 0.0 1.0 0.01 0.08 0.07 92 1020.8
20180225002845 44 300 0.0 3.0 0.02 0.08 0.07 91 1020.6
20180225002337 44 300 1.0 3.0 0.02 0.08 0.07 92 1020.5
20180225001839 44 300 1.0 3.0 0.02 0.08 0.07 92 1020.6
20180225001342 44 300 0.0 3.0 0.02 0.08 0.07 92 1020.8
20180225000840 44 300 1.0 3.0 0.02 0.08 0.07 92 1020.6
20180225000403 44 300 0.0 2.0 0.02 0.08 0.07 91 1020.6
20180224235843 44 300 1.0 2.0 0.02 0.08 0.07 91 1020.7
20180224235341 44 300 0.0 2.0 0.02 0.12 0.07 91 1020.9
20180224234842 44 300 0.0 3.0 0.02 0.12 0.07 92 1020.8
20180224234350 45 300 1.0 3.0 0.02 0.12 0.07 92 1020.7
20180224233850 45 300 0.0 2.0 0.02 0.11 0.06 92 1020.6
20180224233341 45 300 0.0 0.0 0.03 0.11 0.06 92 1020.7
20180224232848 45 300 0.0 0.0 0.02 0.10 0.05 92 1020.6
20180224232345 45 300 0.0 1.0 0.02 0.10 0.05 91 1020.5
20180224231848 45 300 0.0 1.0 0.02 0.10 0.05 91 1020.4
20180224231350 45 300 0.0 1.0 0.02 0.10 0.05 91 1020.4
20180224230848 45 300 0.0 0.0 0.02 0.10 0.05 91 1020.4
20180224230410 45 300 0.0 2.0 0.02 0.10 0.05 91 1020.5
20180224225834 45 300 0.0 2.0 0.02 0.10 0.05 91 1020.4
20180224225349 45 300 1.0 2.0 0.02 0.12 0.05 91 1020.3
20180224224848 45 300 0.0 1.0 0.02 0.12 0.05 91 1020.7
20180224224348 45 300 0.0 1.0 0.02 0.12 0.05 91 1020.8
20180224223844 46 300 0.0 2.0 0.01 0.11 0.04 91 1021.0
20180224223345 46 300 0.0 2.0 0.00 0.10 0.03 91 1020.9
20180224222846 46 300 0.0 0.0 0.01 0.10 0.03 91 1020.8
20180224222343 46 300 0.0 0.0 0.01 0.10 0.03 91 1020.2
20180224221845 46 300 0.0 0.0 0.01 0.10 0.03 91 1020.0
20180224221347 46 300 0.0 2.0 0.02 0.10 0.03 91 1019.9
20180224220845 46 300 0.0 2.0 0.02 0.10 0.03 91 1020.3
20180224220344 46 300 0.0 2.0 0.02 0.10 0.03 91 1020.6
20180224215835 46 300 0.0 3.0 0.02 0.10 0.03 90 1020.5
20180224215350 46 300 1.0 3.0 0.02 0.14 0.03 90 1020.1
20180224214850 46 300 1.0 2.0 0.02 0.14 0.03 91 1020.5
20180224214349 46 300 0.0 3.0 0.02 0.14 0.03 90 1020.4
20180224213845 46 300 0.0 3.0 0.02 0.14 0.03 90 1020.9
20180224213344 47 300 1.0 2.0 0.02 0.14 0.03 90 1020.7
20180224212834 47 300 0.0 1.0 0.01 0.13 0.02 90 1020.6
20180224212339 47 300 0.0 1.0 0.01 0.13 0.02 89 1020.5
20180224211838 47 300 0.0 2.0 0.01 0.13 0.02 89 1020.6
20180224211338 47 300 1.0 2.0 0.00 0.12 0.01 90 1020.6
20180224210833 47 300 1.0 3.0 0.00 0.12 0.01 89 1020.4
20180224210355 47 300 1.0 5.0 0.01 0.12 0.01 90 1020.4
20180224205844 47 300 2.0 5.0 0.01 0.12 0.01 90 1020.4
20180224205337 47 298 1.0 3.0 0.01 0.13 0.01 89 1020.2
20180224204835 48 298 2.0 4.0 0.01 0.13 0.01 89 1020.0
20180224204348 48 298 2.0 4.0 0.01 0.13 0.01 88 1019.6
20180224203844 48 289 2.0 4.0 0.01 0.13 0.01 87 1019.4
20180224203344 48 281 1.0 4.0 0.01 0.13 0.01 87 1019.5
20180224202849 48 281 1.0 4.0 0.01 0.13 0.01 87 1019.4
20180224202343 49 272 1.0 2.0 0.01 0.13 0.01 86 1019.5
20180224201839 49 272 1.0 3.0 0.01 0.13 0.01 85 1019.4
20180224201343 49 272 0.0 3.0 0.01 0.13 0.01 84 1019.6
20180224200841 49 271 1.0 2.0 0.01 0.13 0.01 84 1019.7
20180224200402 49 270 0.0 2.0 0.00 0.12 0.00 83 1019.7
20180224195839 49 270 1.0 4.0 0.00 0.12 0.00 82 1019.8
20180224195335 50 271 1.0 4.0 0.00 0.13 0.00 81 1019.7
20180224194849 50 271 2.0 4.0 0.00 0.13 0.00 80 1019.7
20180224194348 50 273 1.0 3.0 0.00 0.13 0.00 80 1019.6
20180224193840 51 272 1.0 3.0 0.00 0.13 0.00 78 1019.3
20180224193341 51 272 1.0 4.0 0.00 0.13 0.00 76 1019.2
20180224192843 51 320 1.0 3.0 0.00 0.13 0.00 75 1019.1
20180224192340 51 320 1.0 3.0 0.00 0.13 0.00 73 1019.0
20180224191843 51 320 1.0 4.0 0.00 0.13 0.00 72 1018.6
20180224191346 52 320 2.0 5.0 0.00 0.13 0.00 71 1018.5
20180224190843 52 321 2.0 5.0 0.00 0.13 0.00 71 1018.6
20180224190403 52 5 2.0 5.0 0.00 0.13 0.00 70 1018.5
20180224185849 52 277 2.0 3.0 0.00 0.13 0.00 69 1018.6
20180224185349 52 270 1.0 7.0 0.00 0.13 0.00 70 1018.4
20180224184850 53 277 2.0 7.0 0.00 0.13 0.00 69 1018.6
20180224184342 53 322 2.0 5.0 0.00 0.13 0.00 68 1018.8
20180224183840 53 322 1.0 5.0 0.00 0.13 0.00 68 1018.7
20180224183342 53 289 1.0 7.0 0.00 0.13 0.00 69 1018.9
20180224182847 53 252 1.0 7.0 0.00 0.13 0.00 68 1018.7
20180224182345 53 254 2.0 6.0 0.00 0.13 0.00 68 1018.9
20180224181848 53 269 3.0 7.0 0.00 0.13 0.00 68 1019.3
20180224181350 53 276 2.0 7.0 0.00 0.13 0.00 68 1019.4
20180224180849 53 282 3.0 7.0 0.00 0.13 0.00 67 1019.5
20180224180411 53 273 2.0 8.0 0.00 0.13 0.00 68 1019.6
20180224175842 53 271 3.0 8.0 0.00 0.13 0.00 67 1019.9
20180224175344 54 244 4.0 8.0 0.00 0.13 0.00 66 1019.8
20180224174842 54 178 1.0 3.0 0.00 0.13 0.00 67 1019.6
20180224174337 54 46 2.0 8.0 0.00 0.13 0.00 67 1019.5
20180224173848 54 49 2.0 8.0 0.00 0.13 0.00 66 1019.4
20180224173351 54 279 1.0 9.0 0.00 0.13 0.00 67 1019.3
20180224172848 54 264 3.0 9.0 0.00 0.13 0.00 66 1019.2
20180224172349 53 284 3.0 8.0 0.00 0.13 0.00 66 1019.1
20180224171832 53 287 2.0 6.0 0.00 0.13 0.00 66 1018.9
20180224171346 54 351 2.0 7.0 0.00 0.13 0.00 67 1018.8
20180224170845 54 336 2.0 5.0 0.00 0.13 0.00 66 1018.8
20180224170408 54 329 3.0 5.0 0.00 0.13 0.00 66 1018.8
20180224165844 54 298 2.0 7.0 0.00 0.13 0.00 67 1018.9
20180224165343 54 293 2.0 7.0 0.00 0.13 0.00 66 1018.8
20180224164842 54 9 2.0 5.0 0.00 0.13 0.00 66 1018.8
20180224164339 54 360 1.0 5.0 0.00 0.13 0.00 67 1019.0
20180224163849 54 50 3.0 5.0 0.00 0.13 0.00 66 1019.1
20180224163351 54 19 1.0 4.0 0.00 0.13 0.00 67 1019.2
20180224162844 54 22 1.0 4.0 0.00 0.13 0.00 68 1019.2
20180224162339 54 22 1.0 6.0 0.00 0.13 0.00 68 1019.2
20180224161842 53 17 2.0 8.0 0.00 0.13 0.00 66 1019.2
20180224161345 53 355 2.0 8.0 0.00 0.13 0.00 67 1019.2
20180224160844 53 316 2.0 6.0 0.00 0.13 0.00 69 1019.1
20180224160406 52 19 3.0 6.0 0.00 0.13 0.00 68 1019.3
20180224155846 52 345 2.0 7.0 0.00 0.13 0.00 69 1019.2
20180224155344 52 290 2.0 7.0 0.00 0.14 0.00 70 1019.2
20180224154845 52 28 3.0 7.0 0.00 0.14 0.00 70 1019.1
20180224154346 52 277 3.0 6.0 0.00 0.14 0.00 72 1019.1
20180224153840 52 340 2.0 5.0 0.00 0.14 0.00 73 1019.2
20180224153341 52 336 1.0 8.0 0.00 0.14 0.00 75 1019.2
20180224152846 51 329 3.0 8.0 0.00 0.14 0.00 74 1019.3
20180224152348 51 339 2.0 5.0 0.00 0.14 0.00 75 1019.3
20180224151841 51 332 2.0 5.0 0.00 0.14 0.00 76 1019.4
20180224151343 51 350 2.0 5.0 0.00 0.14 0.00 76 1019.3
20180224150842 50 350 2.0 8.0 0.00 0.14 0.00 76 1019.4
20180224150403 50 231 2.0 8.0 0.00 0.14 0.00 78 1019.6
20180224145840 50 262 2.0 7.0 0.00 0.14 0.00 78 1019.6
20180224145339 50 254 1.0 7.0 0.00 0.14 0.00 80 1019.3
20180224144840 50 273 2.0 6.0 0.00 0.14 0.00 80 1019.3
20180224144341 49 265 1.0 7.0 0.00 0.14 0.00 81 1019.3
20180224143839 49 270 1.0 7.0 0.00 0.14 0.00 81 1019.4
20180224143339 49 307 1.0 4.0 0.00 0.14 0.00 82 1019.4
20180224142835 49 304 2.0 4.0 0.00 0.14 0.00 82 1019.4
20180224142333 49 312 2.0 4.0 0.00 0.14 0.00 82 1019.4
20180224141836 49 355 0.0 4.0 0.00 0.14 0.00 85 1019.4
20180224141339 48 346 2.0 5.0 0.00 0.14 0.00 85 1019.5
20180224140838 48 271 2.0 5.0 0.00 0.14 0.00 86 1019.5
20180224140401 47 355 1.0 5.0 0.00 0.14 0.00 87 1019.5
20180224135836 47 279 2.0 4.0 0.00 0.14 0.00 89 1019.4
20180224135349 46 279 1.0 4.0 0.00 0.14 0.00 90 1019.5
20180224134851 46 279 1.0 4.0 0.00 0.14 0.00 91 1019.6
20180224134349 45 253 1.0 3.0 0.00 0.14 0.00 92 1019.7
20180224133847 45 253 1.0 5.0 0.00 0.14 0.00 93 1019.7
20180224133348 44 254 3.0 5.0 0.00 0.14 0.00 94 1019.7
20180224132842 44 228 2.0 5.0 0.00 0.14 0.00 96 1019.7
20180224132339 44 228 2.0 5.0 0.00 0.14 0.00 97 1019.6
20180224131843 44 231 1.0 4.0 0.00 0.14 0.00 97 1019.5
20180224131346 43 261 0.0 4.0 0.00 0.14 0.00 97 1019.5
20180224130844 43 262 0.0 2.0 0.00 0.14 0.00 97 1019.6
20180224130404 42 262 0.0 3.0 0.00 0.14 0.00 97 1019.7
20180224125841 41 262 1.0 4.0 0.00 0.14 0.00 97 1019.6
20180224125340 41 273 1.0 4.0 0.00 0.14 0.00 96 1019.7
20180224124843 41 265 1.0 4.0 0.00 0.14 0.00 97 1019.6
20180224124345 40 265 2.0 4.0 0.00 0.14 0.00 97 1019.9
20180224123841 40 265 1.0 4.0 0.00 0.14 0.00 97 1020.0
20180224123342 39 206 0.0 3.0 0.00 0.14 0.00 96 1019.9
20180224122844 38 206 0.0 2.0 0.00 0.14 0.00 96 1019.8
20180224122342 38 206 0.0 2.0 0.00 0.14 0.00 96 1019.9
20180224121845 37 206 0.0 0.0 0.00 0.14 0.00 96 1019.8
20180224121347 37 206 0.0 0.0 0.00 0.14 0.00 96 1019.7
20180224120847 37 206 0.0 2.0 0.00 0.14 0.00 96 1019.5
20180224120409 37 206 0.0 2.0 0.00 0.14 0.00 96 1019.7
20180224115839 37 206 0.0 0.0 0.00 0.14 0.00 96 1019.9
20180224115340 37 206 0.0 0.0 0.00 0.14 0.00 96 1019.7
20180224114840 37 206 0.0 2.0 0.00 0.14 0.00 96 1019.6
20180224114342 37 206 0.0 2.0 0.00 0.14 0.00 95 1019.5
20180224113840 37 206 0.0 1.0 0.00 0.14 0.00 95 1019.5
20180224113340 37 206 0.0 1.0 0.00 0.14 0.00 95 1019.2
20180224112840 37 206 0.0 0.0 0.00 0.14 0.00 95 1019.1
20180224112337 37 206 0.0 0.0 0.00 0.14 0.00 95 1019.0
20180224111842 37 206 0.0 0.0 0.00 0.14 0.00 95 1019.0
20180224111346 38 206 0.0 0.0 0.00 0.14 0.00 95 1018.8
20180224110844 38 206 0.0 0.0 0.00 0.14 0.00 96 1018.8
20180224110407 38 206 0.0 0.0 0.00 0.14 0.00 95 1018.8
20180224105839 38 206 0.0 0.0 0.00 0.14 0.00 96 1018.7
20180224105339 38 206 0.0 0.0 0.00 0.14 0.00 96 1018.8
20180224104840 38 206 0.0 0.0 0.00 0.14 0.00 95 1018.8
20180224104343 38 206 0.0 1.0 0.00 0.14 0.00 95 1018.7
20180224103839 38 206 0.0 1.0 0.00 0.14 0.00 95 1018.6
20180224103341 38 206 0.0 1.0 0.00 0.14 0.00 95 1018.6
20180224102839 38 206 0.0 2.0 0.00 0.14 0.00 95 1018.6
20180224102337 38 206 1.0 2.0 0.00 0.14 0.00 96 1018.5
20180224101842 39 206 0.0 1.0 0.00 0.14 0.00 95 1018.2
20180224101345 39 206 0.0 1.0 0.00 0.14 0.00 95 1018.3
20180224100844 39 206 0.0 2.0 0.00 0.14 0.00 95 1018.3
20180224100404 39 206 0.0 2.0 0.00 0.14 0.00 95 1018.2
20180224095841 39 206 0.0 1.0 0.00 0.14 0.00 96 1018.1
20180224095341 39 206 0.0 2.0 0.00 0.14 0.00 96 1018.0
20180224094842 39 206 0.0 2.0 0.00 0.14 0.00 96 1018.0
20180224094342 39 206 0.0 2.0 0.00 0.14 0.00 96 1017.9
20180224093838 39 206 0.0 2.0 0.00 0.14 0.00 96 1018.0
20180224093340 39 206 0.0 1.0 0.00 0.14 0.00 96 1018.0
20180224092842 39 206 0.0 2.0 0.00 0.14 0.00 96 1018.1
20180224092340 39 206 0.0 2.0 0.00 0.14 0.00 96 1017.8
20180224091843 39 206 0.0 2.0 0.00 0.14 0.00 96 1017.8
20180224091345 39 206 1.0 2.0 0.00 0.14 0.00 96 1017.9
20180224090845 39 206 0.0 2.0 0.00 0.14 0.00 96 1017.8
20180224090348 39 206 0.0 2.0 0.00 0.14 0.00 96 1018.0
20180224085845 39 206 1.0 3.0 0.00 0.14 0.00 96 1018.1
20180224085340 39 206 1.0 3.0 0.00 0.14 0.00 96 1018.1
20180224084835 39 206 1.0 3.0 0.00 0.14 0.00 96 1018.0
20180224084331 39 206 0.0 2.0 0.00 0.14 0.00 96 1018.1
20180224083845 39 206 0.0 2.0 0.00 0.14 0.00 96 1018.2
20180224083340 39 206 1.0 2.0 0.00 0.14 0.00 96 1018.0
20180224082851 39 206 0.0 2.0 0.00 0.14 0.00 96 1017.9
20180224082349 39 206 1.0 3.0 0.00 0.14 0.00 96 1018.0
20180224081832 39 206 1.0 3.0 0.00 0.14 0.00 96 1018.2
20180224081350 39 206 0.0 2.0 0.00 0.14 0.00 96 1018.2
20180224080845 39 206 1.0 3.0 0.00 0.14 0.00 96 1018.3
20180224080408 39 206 1.0 3.0 0.00 0.14 0.00 96 1018.4
20180224075845 39 206 0.0 2.0 0.00 0.14 0.00 96 1018.4
20180224075345 39 206 0.0 2.0 0.00 0.14 0.00 96 1018.4
20180224074845 39 206 0.0 1.0 0.00 0.14 0.00 96 1018.4
20180224074348 39 206 0.0 1.0 0.00 0.14 0.00 96 1018.7
20180224073841 39 206 0.0 1.0 0.00 0.14 0.00 96 1018.7
20180224073341 39 206 0.0 2.0 0.00 0.14 0.00 96 1018.7
20180224072851 39 206 1.0 2.0 0.00 0.14 0.00 96 1018.8
20180224072350 39 206 1.0 2.0 0.00 0.14 0.00 96 1018.6
20180224071844 39 206 0.0 2.0 0.00 0.14 0.00 96 1018.6
20180224071339 39 206 0.0 2.0 0.00 0.14 0.00 96 1018.9
20180224070837 39 206 1.0 2.0 0.00 0.14 0.00 96 1019.0
20180224070401 39 206 0.0 2.0 0.00 0.14 0.00 96 1019.1
20180224065839 39 206 0.0 2.0 0.00 0.14 0.00 96 1019.0
20180224065339 39 206 1.0 3.0 0.00 0.14 0.14 96 1019.2
20180224064839 39 206 1.0 3.0 0.00 0.14 0.14 96 1019.2
20180224064333 39 206 0.0 2.0 0.00 0.14 0.14 96 1019.1
20180224063831 39 206 1.0 2.0 0.00 0.14 0.14 96 1018.9
20180224063342 39 206 0.0 4.0 0.00 0.14 0.14 96 1019.2
20180224062846 39 206 1.0 4.0 0.00 0.14 0.14 96 1019.2
20180224062345 39 191 1.0 2.0 0.00 0.14 0.14 96 1019.3
20180224061849 39 191 1.0 2.0 0.00 0.14 0.14 96 1019.2
20180224061333 39 191 1.0 2.0 0.00 0.14 0.14 96 1019.2
20180224060831 39 191 0.0 3.0 0.00 0.14 0.14 96 1019.2
20180224060352 39 191 1.0 3.0 0.00 0.14 0.14 96 1019.4
20180224055842 39 191 1.0 2.0 0.00 0.14 0.14 96 1019.5
20180224055342 39 188 1.0 4.0 0.00 0.14 0.14 96 1019.3
20180224054842 39 188 2.0 4.0 0.00 0.14 0.14 96 1019.4
20180224054345 39 201 1.0 4.0 0.00 0.14 0.14 96 1019.6
20180224053841 39 201 2.0 3.0 0.00 0.14 0.14 96 1019.5
20180224053341 39 204 1.0 3.0 0.00 0.14 0.14 96 1019.6
20180224052845 39 205 1.0 5.0 0.00 0.14 0.14 96 1019.7
20180224052342 39 206 2.0 5.0 0.00 0.14 0.14 96 1019.7
20180224051845 39 201 1.0 5.0 0.00 0.14 0.14 96 1019.9
20180224051347 38 203 2.0 5.0 0.00 0.14 0.14 96 1020.0
20180224050846 38 204 1.0 4.0 0.00 0.14 0.14 96 1019.8
20180224050407 38 204 1.0 4.0 0.00 0.14 0.14 96 1019.8
20180224045846 38 186 1.0 4.0 0.00 0.14 0.14 96 1019.8
20180224045345 38 186 1.0 4.0 0.00 0.14 0.14 96 1019.8
20180224044845 38 236 1.0 3.0 0.00 0.14 0.14 96 1019.7
20180224044346 38 236 1.0 4.0 0.00 0.14 0.14 96 1019.6
20180224043841 38 234 1.0 4.0 0.00 0.14 0.14 96 1019.8
20180224043341 38 234 1.0 3.0 0.00 0.14 0.14 96 1020.0
20180224042836 38 234 1.0 2.0 0.00 0.14 0.14 96 1020.2
20180224042332 38 234 0.0 3.0 0.00 0.14 0.14 96 1020.2
20180224041846 38 235 1.0 3.0 0.00 0.14 0.14 96 1020.3
20180224041347 38 234 1.0 3.0 0.00 0.14 0.14 96 1019.9
20180224040846 38 248 1.0 2.0 0.00 0.14 0.14 96 1020.1
20180224040405 38 248 1.0 2.0 0.00 0.14 0.14 96 1020.1
20180224035845 38 248 1.0 3.0 0.00 0.14 0.14 96 1020.4
20180224035343 38 248 1.0 3.0 0.00 0.14 0.14 96 1020.4
20180224034844 38 249 1.0 3.0 0.00 0.14 0.14 96 1020.6
20180224034345 38 249 0.0 3.0 0.00 0.14 0.14 96 1020.7
20180224033840 38 249 1.0 2.0 0.00 0.14 0.14 96 1020.8
20180224033341 38 249 1.0 4.0 0.00 0.14 0.14 96 1020.8
20180224032842 37 248 1.0 4.0 0.00 0.14 0.14 96 1020.8
20180224032340 37 248 1.0 2.0 0.00 0.14 0.14 96 1020.5
20180224031841 37 248 1.0 2.0 0.00 0.14 0.14 96 1020.7
20180224031343 37 248 0.0 4.0 0.00 0.14 0.14 96 1020.9
20180224030841 37 248 1.0 4.0 0.00 0.14 0.14 96 1021.1
20180224030403 37 249 2.0 4.0 0.01 0.14 0.14 96 1021.5
20180224025833 37 248 0.0 3.0 0.01 0.14 0.14 96 1021.6
20180224025349 37 232 1.0 4.0 0.01 0.14 0.14 96 1021.5
20180224024830 37 232 1.0 4.0 0.01 0.14 0.14 96 1021.7
20180224024349 37 136 0.0 2.0 0.01 0.14 0.14 96 1021.5
20180224023843 37 136 1.0 3.0 0.01 0.14 0.14 96 1021.8
20180224023340 37 136 1.0 3.0 0.01 0.14 0.14 96 1021.8
20180224022841 37 94 0.0 3.0 0.01 0.14 0.14 96 1021.8
20180224022339 37 94 0.0 2.0 0.01 0.14 0.14 95 1022.0
20180224021836 37 94 0.0 2.0 0.01 0.14 0.14 95 1022.2
20180224021338 37 90 0.0 2.0 0.01 0.14 0.14 95 1022.3
20180224020836 37 90 1.0 2.0 0.01 0.14 0.14 95 1022.5
20180224020409 37 90 0.0 2.0 0.00 0.13 0.13 95 1022.6
20180224015846 37 90 1.0 2.0 0.00 0.13 0.13 95 1022.7
20180224015346 37 90 1.0 2.0 0.00 0.13 0.13 95 1022.7
20180224014846 37 90 0.0 2.0 0.00 0.13 0.13 95 1022.9